createdAt,value
2017-11-10T00:01:28.203Z,9.38
2017-11-10T00:03:57.992Z,9.34
2017-11-10T00:06:27.964Z,9.27
2017-11-10T00:08:57.562Z,9.41
2017-11-10T00:11:28.105Z,9.38
2017-11-10T00:13:58.560Z,9.37
2017-11-10T00:16:26.788Z,9.42
2017-11-10T00:18:57.191Z,9.18
2017-11-10T00:21:26.934Z,9.31
2017-11-10T00:23:56.616Z,9.54
2017-11-10T00:26:27.761Z,9.73
2017-11-10T00:28:57.881Z,9.77
2017-11-10T00:31:27.481Z,9.62
2017-11-10T00:33:55.732Z,9.50
2017-11-10T00:36:24.808Z,9.60
2017-11-10T00:38:52.414Z,9.97
2017-11-10T00:41:20.259Z,10.02
2017-11-10T00:43:48.946Z,10.14
2017-11-10T00:46:17.544Z,9.69
2017-11-10T00:48:45.330Z,9.76
2017-11-10T00:51:13.792Z,9.69
2017-11-10T00:53:41.458Z,9.68
2017-11-10T00:56:09.086Z,9.61
2017-11-10T00:58:36.721Z,9.56
2017-11-10T01:01:04.381Z,9.70
2017-11-10T01:03:32.025Z,9.75
2017-11-10T01:05:59.726Z,10.07
2017-11-10T01:08:27.508Z,9.92
2017-11-10T01:13:37.198Z,9.67
2017-11-10T01:16:05.291Z,9.71
2017-11-10T01:18:33.186Z,9.39
2017-11-10T01:21:01.126Z,9.48
2017-11-10T01:23:28.767Z,9.72
2017-11-10T01:25:56.503Z,9.64
2017-11-10T01:28:24.293Z,9.73
2017-11-10T01:30:51.932Z,9.71
2017-11-10T01:33:22.257Z,9.86
2017-11-10T01:35:49.937Z,9.85
2017-11-10T01:38:17.658Z,9.78
2017-11-10T01:40:45.397Z,9.58
2017-11-10T01:57:16.649Z,9.65
2017-11-10T01:59:45.904Z,9.56
2017-11-10T02:02:14.701Z,9.46
2017-11-10T02:07:53.919Z,9.70
2017-11-10T02:10:21.801Z,9.51
2017-11-10T02:12:57.788Z,9.57
2017-11-10T02:15:27.428Z,9.52
2017-11-10T02:24:57.596Z,9.14
2017-11-10T02:27:25.482Z,9.56
2017-11-10T02:29:53.320Z,9.85
2017-11-10T02:32:21.914Z,9.86
2017-11-10T02:34:52.806Z,9.73
2017-11-10T02:37:20.714Z,9.69
2017-11-10T02:39:49.268Z,9.51
2017-11-10T03:18:18.594Z,9.73
2017-11-10T03:20:46.239Z,9.43
2017-11-10T03:23:13.830Z,9.13
2017-11-10T03:25:41.689Z,9.41
2017-11-10T03:28:09.327Z,9.23
2017-11-10T03:30:37.403Z,9.21
2017-11-10T03:37:20.442Z,9.21
2017-11-10T03:39:53.506Z,8.38
2017-11-10T04:03:19.860Z,8.68
2017-11-10T04:05:59.185Z,8.78
2017-11-10T04:09:22.536Z,8.33
2017-11-10T04:11:54.084Z,8.41
2017-11-10T04:14:38.395Z,8.85
2017-11-10T04:17:06.060Z,8.64
2017-11-10T04:19:33.903Z,8.93
2017-11-10T04:22:01.568Z,9.01
2017-11-10T04:24:29.159Z,8.96
2017-11-10T04:26:56.930Z,8.92
2017-11-10T04:29:25.054Z,8.77
2017-11-10T04:31:52.747Z,8.57
2017-11-10T04:34:20.354Z,8.69
2017-11-10T04:36:47.985Z,8.83
2017-11-10T04:39:15.634Z,8.88
2017-11-10T04:41:43.611Z,7.93
2017-11-10T04:44:15.419Z,8.35
2017-11-10T04:46:43.014Z,8.18
2017-11-10T04:49:10.606Z,7.90
2017-11-10T04:51:38.247Z,8.01
2017-11-10T04:54:06.103Z,7.75
2017-11-10T04:56:34.215Z,8.19
2017-11-10T04:59:01.892Z,8.35
2017-11-10T05:01:29.492Z,8.31
2017-11-10T05:03:57.382Z,8.55
2017-11-10T05:06:26.900Z,8.23
2017-11-10T05:08:55.619Z,8.43
2017-11-10T05:11:23.166Z,8.88
2017-11-10T05:13:51.614Z,9.08
2017-11-10T05:16:22.152Z,8.73
2017-11-10T05:18:51.294Z,9.01
2017-11-10T05:21:19.771Z,9.15
2017-11-10T05:23:47.681Z,9.35
2017-11-10T05:26:17.434Z,9.53
2017-11-10T05:28:45.256Z,8.99
2017-11-10T05:31:12.947Z,9.21
2017-11-10T05:33:40.564Z,9.14
2017-11-10T05:36:08.394Z,9.34
2017-11-10T05:38:36.623Z,9.05
2017-11-10T05:41:04.227Z,9.66
2017-11-10T05:43:32.083Z,10.41
2017-11-10T05:45:59.666Z,11.23
2017-11-10T05:48:27.454Z,11.24
2017-11-10T05:50:55.048Z,11.10
2017-11-10T05:53:22.655Z,10.92
2017-11-10T05:55:50.651Z,10.80
2017-11-10T05:58:18.859Z,10.61
2017-11-10T06:00:46.506Z,9.99
2017-11-10T06:03:14.076Z,9.96
2017-11-10T06:05:41.935Z,9.75
2017-11-10T06:08:10.537Z,10.28
2017-11-10T06:10:38.176Z,10.31
2017-11-10T06:13:06.710Z,10.13
2017-11-10T06:15:34.529Z,10.12
2017-11-10T06:18:02.399Z,10.18
2017-11-10T06:20:30.170Z,9.85
2017-11-10T06:22:57.764Z,9.85
2017-11-10T06:25:25.563Z,9.83
2017-11-10T06:27:53.141Z,9.95
2017-11-10T06:30:20.856Z,10.06
2017-11-10T06:32:48.655Z,10.06
2017-11-10T06:35:16.359Z,10.04
2017-11-10T06:37:43.977Z,9.42
2017-11-10T06:40:11.549Z,9.31
2017-11-10T06:42:39.084Z,9.69
2017-11-10T06:45:06.696Z,9.83
2017-11-10T06:47:34.444Z,9.64
2017-11-10T06:50:02.068Z,9.49
2017-11-10T06:52:29.868Z,9.19
2017-11-10T06:54:57.665Z,9.71
2017-11-10T06:57:25.200Z,9.67
2017-11-10T06:59:52.992Z,9.69
2017-11-10T07:02:20.912Z,9.83
2017-11-10T07:04:48.472Z,9.80
2017-11-10T07:07:16.002Z,10.03
2017-11-10T07:09:43.608Z,10.21
2017-11-10T07:12:11.714Z,10.11
2017-11-10T07:14:39.517Z,10.30
2017-11-10T07:17:07.133Z,10.09
2017-11-10T07:19:34.914Z,10.25
2017-11-10T07:22:02.480Z,10.42
2017-11-10T07:24:30.046Z,10.56
2017-11-10T07:26:57.643Z,10.53
2017-11-10T07:29:25.227Z,10.84
2017-11-10T07:31:52.878Z,10.72
2017-11-10T07:34:20.669Z,10.80
2017-11-10T07:36:48.237Z,10.83
2017-11-10T07:39:15.810Z,10.82
2017-11-10T07:41:43.449Z,10.65
2017-11-10T07:44:11.234Z,10.84
2017-11-10T07:46:39.215Z,11.03
2017-11-10T07:49:06.780Z,11.29
2017-11-10T07:51:34.342Z,11.09
2017-11-10T07:54:01.938Z,11.20
2017-11-10T07:56:29.549Z,10.72
2017-11-10T07:58:57.100Z,10.38
2017-11-10T08:01:24.696Z,10.99
2017-11-10T08:03:52.240Z,10.99
2017-11-10T08:06:19.834Z,11.03
2017-11-10T08:08:47.433Z,11.28
2017-11-10T08:11:15.041Z,10.93
2017-11-10T08:13:42.604Z,10.99
2017-11-10T08:16:10.195Z,11.15
2017-11-10T08:18:37.765Z,11.19
2017-11-10T08:21:05.320Z,11.11
2017-11-10T08:23:32.918Z,11.40
2017-11-10T08:26:00.452Z,11.25
2017-11-10T08:28:28.009Z,11.34
2017-11-10T08:30:55.677Z,11.26
2017-11-10T08:33:23.264Z,11.11
2017-11-10T08:35:51.077Z,11.24
2017-11-10T08:38:18.744Z,11.14
2017-11-10T08:40:46.287Z,11.34
2017-11-10T08:43:13.875Z,11.52
2017-11-10T08:45:41.513Z,11.60
2017-11-10T08:48:09.069Z,11.68
2017-11-10T08:50:36.696Z,11.94
2017-11-10T08:53:04.432Z,12.06
2017-11-10T08:55:31.995Z,12.11
2017-11-10T08:57:59.559Z,11.89
2017-11-10T09:00:28.083Z,11.96
2017-11-10T09:02:56.295Z,11.74
2017-11-10T09:05:23.840Z,11.90
2017-11-10T09:07:51.441Z,12.04
2017-11-10T09:10:19.037Z,12.15
2017-11-10T09:12:46.614Z,12.18
2017-11-10T09:15:14.226Z,12.48
2017-11-10T09:17:41.832Z,12.45
2017-11-10T09:20:09.418Z,12.52
2017-11-10T09:22:37.074Z,12.08
2017-11-10T09:25:04.639Z,12.34
2017-11-10T09:27:32.226Z,12.35
2017-11-10T09:30:05.531Z,12.38
2017-11-10T09:35:35.073Z,12.05
2017-11-10T09:38:19.400Z,12.34
2017-11-10T09:41:02.702Z,12.65
2017-11-10T09:43:35.881Z,12.78
2017-11-10T09:46:09.066Z,12.67
2017-11-10T09:48:42.124Z,12.33
2017-11-10T09:51:15.374Z,12.59
2017-11-10T09:53:48.497Z,13.38
2017-11-10T09:56:31.804Z,13.83
2017-11-10T09:59:05.080Z,14.44
2017-11-10T10:01:44.536Z,14.46
2017-11-10T10:04:12.157Z,15.18
2017-11-10T10:06:45.435Z,15.51
2017-11-10T10:09:18.443Z,16.23
2017-11-10T10:11:46.466Z,16.32
2017-11-10T10:14:16.010Z,16.67
2017-11-10T10:16:43.586Z,16.37
2017-11-10T10:19:31.042Z,16.25
2017-11-10T10:22:04.280Z,16.18
2017-11-10T10:24:31.925Z,16.81
2017-11-10T10:26:59.501Z,16.52
2017-11-10T10:29:27.076Z,17.11
2017-11-10T10:31:55.400Z,17.46
2017-11-10T10:34:23.086Z,17.51
2017-11-10T10:36:51.504Z,16.76
2017-11-10T10:41:51.402Z,16.94
2017-11-10T10:44:21.421Z,16.58
2017-11-10T10:46:52.149Z,17.43
2017-11-10T10:49:23.717Z,17.90
2017-11-10T10:51:51.298Z,17.63
2017-11-10T10:54:27.552Z,17.88
2017-11-10T10:56:58.632Z,17.35
2017-11-10T10:59:28.039Z,16.41
2017-11-10T11:02:03.388Z,17.18
2017-11-10T11:04:33.624Z,17.25
2017-11-10T11:07:01.782Z,17.15
2017-11-10T11:09:37.104Z,16.97
2017-11-10T11:12:06.480Z,16.47
2017-11-10T11:14:34.561Z,15.99
2017-11-10T11:17:05.674Z,15.52
2017-11-10T11:19:34.939Z,14.31
2017-11-10T11:22:02.759Z,14.84
2017-11-10T11:24:35.399Z,14.77
2017-11-10T11:27:03.062Z,14.67
2017-11-10T11:29:31.530Z,14.43
2017-11-10T11:32:01.672Z,14.02
2017-11-10T11:34:29.312Z,14.04
2017-11-10T11:36:57.054Z,13.94
2017-11-10T11:39:25.449Z,14.15
2017-11-10T11:41:53.037Z,14.33
2017-11-10T11:44:29.543Z,14.48
2017-11-10T11:52:19.988Z,14.15
2017-11-10T11:54:48.081Z,14.04
2017-11-10T11:57:15.708Z,14.38
2017-11-10T11:59:43.337Z,14.57
2017-11-10T12:02:11.001Z,14.49
2017-11-10T12:04:39.519Z,14.98
2017-11-10T12:07:07.079Z,14.89
2017-11-10T12:09:39.330Z,14.91
2017-11-10T12:12:09.780Z,15.31
2017-11-10T12:14:37.784Z,15.28
2017-11-10T12:17:06.071Z,14.98
2017-11-10T12:19:34.591Z,15.46
2017-11-10T12:22:02.212Z,15.09
2017-11-10T12:24:29.766Z,15.31
2017-11-10T12:26:57.387Z,15.08
2017-11-10T12:29:24.968Z,14.73
2017-11-10T12:31:53.494Z,15.13
2017-11-10T12:34:21.116Z,15.05
2017-11-10T12:36:48.708Z,15.02
2017-11-10T12:39:16.500Z,14.99
2017-11-10T12:41:44.112Z,14.69
2017-11-10T12:44:11.937Z,14.82
2017-11-10T12:46:39.529Z,14.64
2017-11-10T12:49:07.385Z,14.62
2017-11-10T12:51:34.963Z,14.79
2017-11-10T12:54:02.672Z,14.73
2017-11-10T12:56:30.465Z,14.66
2017-11-10T12:58:58.083Z,14.63
2017-11-10T13:01:25.693Z,14.43
2017-11-10T13:03:53.495Z,14.48
2017-11-10T13:06:21.297Z,14.61
2017-11-10T13:08:48.958Z,14.64
2017-11-10T13:11:16.510Z,14.47
2017-11-10T13:13:44.061Z,14.60
2017-11-10T13:16:11.668Z,14.57
2017-11-10T13:18:39.835Z,14.72
2017-11-10T13:21:07.376Z,14.90
2017-11-10T13:23:35.141Z,14.84
2017-11-10T13:26:03.904Z,14.72
2017-11-10T13:28:31.463Z,14.89
2017-11-10T13:30:59.048Z,14.94
2017-11-10T13:33:26.847Z,14.62
2017-11-10T13:35:54.395Z,14.21
2017-11-10T13:38:21.971Z,14.42
2017-11-10T13:40:49.571Z,14.71
2017-11-10T13:43:17.138Z,14.32
2017-11-10T13:45:44.839Z,14.39
2017-11-10T13:48:12.476Z,14.61
2017-11-10T13:50:40.021Z,14.69
2017-11-10T13:53:07.607Z,14.60
2017-11-10T13:55:35.409Z,14.68
2017-11-10T13:58:02.954Z,14.74
2017-11-10T14:00:30.615Z,14.80
2017-11-10T14:02:58.172Z,14.90
2017-11-10T14:05:25.771Z,14.74
2017-11-10T14:07:53.391Z,14.77
2017-11-10T14:10:21.158Z,14.76
2017-11-10T14:12:48.784Z,14.71
2017-11-10T14:15:16.424Z,14.64
2017-11-10T14:17:44.024Z,14.67
2017-11-10T14:20:11.647Z,14.61
2017-11-10T14:22:39.485Z,14.65
2017-11-10T14:25:07.059Z,14.67
2017-11-10T14:27:34.667Z,14.49
2017-11-10T14:30:02.248Z,14.56
2017-11-10T14:32:29.827Z,14.40
2017-11-10T14:34:57.407Z,14.55
2017-11-10T14:37:25.025Z,14.54
2017-11-10T14:39:52.693Z,14.56
2017-11-10T14:42:20.305Z,14.36
2017-11-10T14:44:47.840Z,14.38
2017-11-10T14:47:15.442Z,14.46
2017-11-10T14:49:43.043Z,14.34
2017-11-10T14:52:11.374Z,14.06
2017-11-10T14:54:38.973Z,14.12
2017-11-10T14:57:06.567Z,14.03
2017-11-10T14:59:34.170Z,14.04
2017-11-10T15:02:01.788Z,13.86
2017-11-10T15:04:47.139Z,13.74
2017-11-10T15:07:14.730Z,13.74
2017-11-10T15:09:45.602Z,13.55
2017-11-10T15:12:16.147Z,13.61
2017-11-10T15:14:46.354Z,13.36
2017-11-10T15:17:13.978Z,13.06
2017-11-10T15:19:44.285Z,13.11
2017-11-10T15:22:13.604Z,13.05
2017-11-10T15:24:42.154Z,13.00
2017-11-10T15:27:10.086Z,12.92
2017-11-10T15:32:14.835Z,12.81
2017-11-10T15:34:43.447Z,12.80
2017-11-10T15:37:11.599Z,12.85
2017-11-10T15:39:40.224Z,12.77
2017-11-10T15:42:08.361Z,12.77
2017-11-10T15:44:37.316Z,12.70
2017-11-10T15:47:13.439Z,12.79
2017-11-10T15:49:43.217Z,12.54
2017-11-10T15:52:18.324Z,12.50
2017-11-10T15:54:49.070Z,12.31
2017-11-10T15:57:25.125Z,12.52
2017-11-10T16:00:18.340Z,12.50
2017-11-10T16:13:23.468Z,12.31
2017-11-10T16:29:08.649Z,12.36
2017-11-10T16:35:22.000Z,12.14
2017-11-10T16:37:58.558Z,11.91
2017-11-10T16:40:29.217Z,12.08
2017-11-10T16:43:07.881Z,11.87
2017-11-10T16:45:39.674Z,12.12
2017-11-10T16:48:18.484Z,12.22
2017-11-10T16:50:53.532Z,12.10
2017-11-10T16:53:26.180Z,11.94
2017-11-10T17:02:04.833Z,12.20
2017-11-10T17:04:33.261Z,12.26
2017-11-10T17:07:03.198Z,12.41
2017-11-10T17:09:31.513Z,12.55
2017-11-10T17:12:02.279Z,12.38
2017-11-10T17:14:32.490Z,12.56
2017-11-10T17:17:00.952Z,12.46
2017-11-10T17:32:59.068Z,12.31
2017-11-10T17:35:27.837Z,12.42
2017-11-10T17:37:56.612Z,11.93
2017-11-10T17:40:28.097Z,12.20
2017-11-10T17:42:55.762Z,12.11
2017-11-10T17:45:28.168Z,12.12
2017-11-10T17:47:55.747Z,12.08
2017-11-10T17:50:24.056Z,12.03
2017-11-10T17:52:55.205Z,11.98
2017-11-10T17:55:22.889Z,11.99
2017-11-10T17:57:50.577Z,11.67
2017-11-10T18:00:18.537Z,11.67
2017-11-10T18:02:46.299Z,11.62
2017-11-10T18:05:15.066Z,11.47
2017-11-10T18:07:42.717Z,11.34
2017-11-10T18:10:11.094Z,10.92
2017-11-10T18:12:40.629Z,11.11
2017-11-10T18:15:09.182Z,10.63
2017-11-10T18:17:38.262Z,10.82
2017-11-10T18:20:18.347Z,10.73
2017-11-10T18:22:52.994Z,10.59
2017-11-10T18:25:20.715Z,10.57
2017-11-10T18:27:53.972Z,10.51
2017-11-10T18:30:25.673Z,10.59
2017-11-10T18:32:53.260Z,10.83
2017-11-10T18:35:21.065Z,10.48
2017-11-10T18:44:35.324Z,10.06
2017-11-10T18:47:09.128Z,10.02
2017-11-10T18:49:36.902Z,9.94
2017-11-10T18:52:09.545Z,9.96
2017-11-10T18:54:38.032Z,10.00
2017-11-10T18:57:12.584Z,9.81
2017-11-10T18:59:42.325Z,9.86
2017-11-10T19:02:11.854Z,10.05
2017-11-10T19:04:40.158Z,10.05
2017-11-10T19:07:16.655Z,10.03
2017-11-10T19:16:32.825Z,9.66
2017-11-10T19:19:09.058Z,9.75
2017-11-10T19:21:36.834Z,9.85
2017-11-10T19:24:04.482Z,10.03
2017-11-10T19:26:46.797Z,10.04
2017-11-10T19:29:38.079Z,9.97
2017-11-10T19:35:29.668Z,9.99
2017-11-10T19:38:20.858Z,9.96
2017-11-10T19:40:51.514Z,9.97
2017-11-10T19:43:19.076Z,10.17
2017-11-10T19:45:46.678Z,10.35
2017-11-10T19:48:14.902Z,10.46
2017-11-10T19:50:51.258Z,10.44
2017-11-10T19:53:22.720Z,10.47
2017-11-10T19:55:51.585Z,10.51
2017-11-10T19:58:24.997Z,10.76
2017-11-10T20:00:52.759Z,10.71
2017-11-10T20:03:21.084Z,10.73
2017-11-10T20:05:51.351Z,10.57
2017-11-10T20:08:22.595Z,10.78
2017-11-10T20:10:57.206Z,10.49
2017-11-10T20:13:24.923Z,10.66
2017-11-10T20:15:52.608Z,10.86
2017-11-10T20:18:20.262Z,10.98
2017-11-10T20:20:47.900Z,11.08
2017-11-10T20:23:15.510Z,10.78
2017-11-10T20:25:43.114Z,10.73
2017-11-10T20:28:10.740Z,10.98
2017-11-10T20:30:38.473Z,11.01
2017-11-10T20:33:06.076Z,10.85
2017-11-10T20:35:33.617Z,10.96
2017-11-10T20:38:01.786Z,10.78
2017-11-10T20:40:29.387Z,10.53
2017-11-10T20:46:27.677Z,10.11
2017-11-10T20:48:55.601Z,10.26
2017-11-10T20:51:23.210Z,10.57
2017-11-10T20:53:50.853Z,10.49
2017-11-10T20:56:19.209Z,10.46
2017-11-10T20:59:10.159Z,10.23
2017-11-10T21:01:37.784Z,10.22
2017-11-10T21:04:06.210Z,10.34
2017-11-10T21:06:33.844Z,10.12
2017-11-10T21:09:01.531Z,10.11
2017-11-10T21:11:29.265Z,10.29
2017-11-10T21:13:56.938Z,10.20
2017-11-10T21:16:24.578Z,10.13
2017-11-10T21:18:52.310Z,10.08
2017-11-10T21:21:20.143Z,10.17
2017-11-10T21:23:47.876Z,10.05
2017-11-10T22:00:27.329Z,10.07
2017-11-10T22:02:54.984Z,9.94
2017-11-10T22:05:23.288Z,9.81
2017-11-10T22:07:50.903Z,10.09
2017-11-10T22:10:18.707Z,10.16
2017-11-10T22:12:46.352Z,10.42
2017-11-10T22:15:14.666Z,9.98
2017-11-10T22:21:13.739Z,9.97
2017-11-10T22:23:42.383Z,10.07
2017-11-10T22:26:11.000Z,10.05
2017-11-10T22:28:42.185Z,9.92
2017-11-10T22:31:11.135Z,9.83
2017-11-10T22:33:38.757Z,9.82
2017-11-10T22:59:33.229Z,9.62
2017-11-10T23:28:50.350Z,9.78
2017-11-10T23:31:17.995Z,9.18
2017-11-10T23:33:45.526Z,9.09
2017-11-10T23:36:14.143Z,9.10
2017-11-10T23:38:42.174Z,9.12
2017-11-10T23:41:10.057Z,8.96
2017-11-10T23:43:48.536Z,9.15
2017-11-10T23:46:16.344Z,8.79
2017-11-10T23:48:43.961Z,9.19
2017-11-10T23:51:11.636Z,9.27
2017-11-10T23:53:39.471Z,9.33
2017-11-10T23:56:07.052Z,9.21
2017-11-10T23:58:34.685Z,9.15
